createdAt,value
2022-08-23T00:00:13.366Z,3.90
2022-08-23T00:01:09.304Z,3.80
2022-08-23T00:02:22.929Z,3.60
2022-08-23T00:03:09.416Z,3.80
2022-08-23T00:04:09.254Z,3.80
2022-08-23T00:05:10.078Z,3.60
2022-08-23T00:06:09.236Z,3.30
2022-08-23T00:07:09.226Z,3.90
2022-08-23T00:08:09.231Z,3.50
2022-08-23T00:09:09.207Z,3.70
2022-08-23T00:10:09.208Z,4.00
2022-08-23T00:11:09.201Z,3.70
2022-08-23T00:12:09.172Z,3.90
2022-08-23T00:13:09.180Z,3.70
2022-08-23T00:14:09.148Z,3.60
2022-08-23T00:15:09.151Z,3.60
2022-08-23T00:16:09.126Z,3.60
2022-08-23T00:17:09.123Z,3.50
2022-08-23T00:18:09.123Z,3.60
2022-08-23T00:19:09.102Z,3.40
2022-08-23T00:20:09.086Z,3.60
2022-08-23T00:21:09.095Z,3.40
2022-08-23T00:22:09.067Z,3.50
2022-08-23T00:23:09.104Z,3.70
2022-08-23T00:24:09.050Z,3.70
2022-08-23T00:25:09.039Z,3.40
2022-08-23T00:26:09.030Z,3.50
2022-08-23T00:27:09.018Z,3.80
2022-08-23T00:28:14.625Z,3.60
2022-08-23T00:29:09.003Z,3.50
2022-08-23T00:30:08.982Z,3.60
2022-08-23T00:31:08.982Z,3.90
2022-08-23T00:32:08.960Z,3.60
2022-08-23T00:33:08.974Z,3.70
2022-08-23T00:34:08.939Z,3.90
2022-08-23T00:35:08.941Z,3.90
2022-08-23T00:36:08.918Z,4.20
2022-08-23T00:37:08.920Z,4.30
2022-08-23T00:38:33.892Z,4.30
2022-08-23T00:39:08.898Z,3.90
2022-08-23T00:40:08.930Z,4.20
2022-08-23T00:41:08.874Z,4.20
2022-08-23T00:42:08.856Z,4.10
2022-08-23T00:43:08.865Z,4.30
2022-08-23T00:44:08.836Z,4.10
2022-08-23T00:45:08.828Z,4.20
2022-08-23T00:46:08.819Z,4.00
2022-08-23T00:47:08.811Z,4.20
2022-08-23T00:48:08.809Z,4.00
2022-08-23T00:49:08.789Z,4.30
2022-08-23T00:50:23.346Z,4.10
2022-08-23T00:51:08.771Z,4.30
2022-08-23T00:52:08.752Z,4.10
2022-08-23T00:53:08.763Z,4.50
2022-08-23T00:54:08.731Z,4.30
2022-08-23T00:55:08.733Z,4.20
2022-08-23T00:56:08.711Z,3.90
2022-08-23T00:57:08.707Z,4.30
2022-08-23T00:58:08.708Z,4.00
2022-08-23T00:59:08.681Z,4.20
2022-08-23T01:00:08.668Z,4.20
2022-08-23T01:01:08.662Z,4.30
2022-08-23T01:02:08.744Z,4.30
2022-08-23T01:03:08.657Z,4.20
2022-08-23T01:04:08.626Z,4.00
2022-08-23T01:05:08.630Z,4.30
2022-08-23T01:06:08.605Z,4.40
2022-08-23T01:07:08.599Z,4.30
2022-08-23T01:08:08.601Z,4.60
2022-08-23T01:09:08.579Z,4.20
2022-08-23T01:10:08.563Z,4.50
2022-08-23T01:11:08.822Z,4.50
2022-08-23T01:12:08.558Z,4.80
2022-08-23T01:13:08.547Z,4.40
2022-08-23T01:14:08.522Z,3.90
2022-08-23T01:15:08.516Z,4.00
2022-08-23T01:16:08.506Z,4.50
2022-08-23T01:17:08.514Z,4.30
2022-08-23T01:18:08.479Z,4.50
2022-08-23T01:19:08.478Z,4.40
2022-08-23T01:20:08.474Z,4.30
2022-08-23T01:21:10.589Z,4.70
2022-08-23T01:22:08.453Z,4.40
2022-08-23T01:23:08.431Z,4.50
2022-08-23T01:24:08.417Z,4.50
2022-08-23T01:25:09.282Z,4.90
2022-08-23T01:26:08.393Z,4.80
2022-08-23T01:27:08.407Z,4.50
2022-08-23T01:28:08.374Z,4.40
2022-08-23T01:29:08.373Z,4.60
2022-08-23T01:30:08.351Z,4.40
2022-08-23T01:31:08.354Z,4.60
2022-08-23T01:32:08.350Z,4.80
2022-08-23T01:33:08.326Z,4.50
2022-08-23T01:34:08.310Z,4.40
2022-08-23T01:35:08.389Z,4.60
2022-08-23T01:36:09.773Z,4.40
2022-08-23T01:37:08.301Z,4.80
2022-08-23T01:38:08.270Z,4.40
2022-08-23T01:39:08.269Z,4.60
2022-08-23T01:40:08.312Z,4.60
2022-08-23T01:41:08.242Z,4.60
2022-08-23T01:42:08.245Z,4.60
2022-08-23T01:43:08.227Z,4.40
2022-08-23T01:44:08.208Z,4.20
2022-08-23T01:45:08.197Z,4.50
2022-08-23T01:46:08.186Z,4.40
2022-08-23T01:47:08.195Z,4.30
2022-08-23T01:48:08.162Z,4.40
2022-08-23T01:49:08.604Z,4.10
2022-08-23T01:50:08.141Z,3.80
2022-08-23T01:51:08.195Z,3.90
2022-08-23T01:52:08.139Z,4.00
2022-08-23T01:53:08.120Z,4.00
2022-08-23T01:54:08.098Z,4.20
2022-08-23T01:55:08.093Z,3.80
2022-08-23T01:56:08.084Z,4.30
2022-08-23T01:57:08.094Z,4.10
2022-08-23T01:58:08.072Z,4.50
2022-08-23T01:59:08.056Z,3.80
2022-08-23T02:00:08.036Z,3.80
2022-08-23T02:01:08.030Z,4.20
2022-08-23T02:02:08.150Z,4.20
2022-08-23T02:03:08.010Z,4.30
2022-08-23T02:04:07.995Z,4.30
2022-08-23T02:05:07.987Z,4.30
2022-08-23T02:06:07.974Z,4.60
2022-08-23T02:07:07.986Z,4.70
2022-08-23T02:08:07.961Z,4.50
2022-08-23T02:09:17.504Z,4.90
2022-08-23T02:10:07.939Z,4.30
2022-08-23T02:11:07.931Z,4.50
2022-08-23T02:12:07.939Z,4.40
2022-08-23T02:13:07.907Z,4.90
2022-08-23T02:14:07.893Z,4.60
2022-08-23T02:15:07.889Z,4.50
2022-08-23T02:16:07.868Z,4.50
2022-08-23T02:17:07.880Z,4.40
2022-08-23T02:18:07.851Z,5.00
2022-08-23T02:19:07.844Z,4.60
2022-08-23T02:20:07.826Z,4.50
2022-08-23T02:22:07.822Z,4.30
2022-08-23T02:23:07.799Z,4.60
2022-08-23T02:24:07.787Z,4.60
2022-08-23T02:25:07.781Z,4.40
2022-08-23T02:26:07.763Z,4.80
2022-08-23T02:27:07.777Z,4.30
2022-08-23T02:28:07.751Z,4.40
2022-08-23T02:29:07.739Z,4.80
2022-08-23T02:30:07.726Z,4.70
2022-08-23T02:31:07.719Z,4.70
2022-08-23T02:32:07.725Z,4.40
2022-08-23T02:33:07.709Z,4.10
2022-08-23T02:34:43.522Z,4.30
2022-08-23T02:35:07.707Z,4.20
2022-08-23T02:36:07.774Z,4.30
2022-08-23T02:37:07.711Z,4.80
2022-08-23T02:38:07.683Z,4.70
2022-08-23T02:39:07.662Z,4.30
2022-08-23T02:40:07.737Z,4.70
2022-08-23T02:41:07.643Z,4.50
2022-08-23T02:42:07.651Z,4.80
2022-08-23T02:43:07.627Z,4.20
2022-08-23T02:44:07.616Z,4.30
2022-08-23T02:45:07.600Z,4.80
2022-08-23T02:46:07.592Z,4.50
2022-08-23T02:47:07.598Z,4.60
2022-08-23T02:48:07.566Z,4.90
2022-08-23T02:49:07.566Z,4.80
2022-08-23T02:50:07.549Z,5.30
2022-08-23T02:51:07.540Z,4.60
2022-08-23T02:52:07.542Z,4.90
2022-08-23T02:53:07.522Z,4.80
2022-08-23T02:54:07.505Z,5.00
2022-08-23T02:55:07.505Z,5.20
2022-08-23T02:56:12.912Z,4.80
2022-08-23T02:57:07.508Z,4.70
2022-08-23T02:58:07.465Z,4.90
2022-08-23T02:59:07.458Z,4.70
2022-08-23T03:00:07.454Z,4.80
2022-08-23T03:01:07.439Z,4.60
2022-08-23T03:02:07.519Z,4.60
2022-08-23T03:03:07.428Z,4.60
2022-08-23T03:04:07.399Z,4.80
2022-08-23T03:05:07.390Z,4.70
2022-08-23T03:06:24.651Z,4.50
2022-08-23T03:07:07.401Z,4.40
2022-08-23T03:08:07.355Z,4.70
2022-08-23T03:09:07.350Z,4.70
2022-08-23T03:10:07.414Z,4.70
2022-08-23T03:11:09.842Z,4.50
2022-08-23T03:12:07.339Z,4.70
2022-08-23T03:13:07.314Z,4.40
2022-08-23T03:14:07.307Z,4.50
2022-08-23T03:15:07.292Z,4.30
2022-08-23T03:16:07.279Z,4.60
2022-08-23T03:17:07.292Z,4.50
2022-08-23T03:18:08.081Z,4.60
2022-08-23T03:19:07.251Z,4.50
2022-08-23T03:20:07.234Z,4.50
2022-08-23T03:21:07.231Z,4.60
2022-08-23T03:22:07.227Z,4.40
2022-08-23T03:23:07.203Z,5.00
2022-08-23T03:24:10.351Z,4.80
2022-08-23T03:25:07.182Z,4.60
2022-08-23T03:26:07.169Z,4.50
2022-08-23T03:27:07.181Z,4.80
2022-08-23T03:28:07.149Z,5.00
2022-08-23T03:29:07.146Z,4.70
2022-08-23T03:30:07.127Z,5.30
2022-08-23T03:31:07.118Z,4.80
2022-08-23T03:32:07.091Z,4.80
2022-08-23T03:33:07.068Z,4.90
2022-08-23T03:34:07.050Z,5.20
2022-08-23T03:35:07.052Z,5.10
2022-08-23T03:36:07.035Z,5.10
2022-08-23T03:37:07.041Z,4.90
2022-08-23T03:38:07.008Z,5.30
2022-08-23T03:39:07.000Z,4.90
2022-08-23T03:40:07.044Z,5.40
2022-08-23T03:41:06.980Z,5.50
2022-08-23T03:42:06.982Z,5.40
2022-08-23T03:43:06.963Z,5.00
2022-08-23T03:44:06.947Z,5.20
2022-08-23T03:45:06.939Z,6.00
2022-08-23T03:46:06.923Z,5.20
2022-08-23T03:47:06.937Z,5.40
2022-08-23T03:48:06.903Z,5.20
2022-08-23T03:49:06.900Z,5.40
2022-08-23T03:50:06.881Z,5.30
2022-08-23T03:51:06.876Z,5.60
2022-08-23T03:52:06.879Z,5.70
2022-08-23T03:53:06.856Z,5.40
2022-08-23T03:54:06.839Z,5.30
2022-08-23T03:55:06.842Z,5.60
2022-08-23T03:56:06.829Z,5.40
2022-08-23T03:57:06.829Z,5.50
2022-08-23T03:58:06.801Z,5.70
2022-08-23T03:59:06.791Z,5.90
2022-08-23T04:00:06.783Z,5.60
2022-08-23T04:01:06.769Z,5.50
2022-08-23T04:02:06.820Z,5.40
2022-08-23T04:03:06.750Z,5.30
2022-08-23T04:04:06.739Z,5.60
2022-08-23T04:05:06.731Z,5.50
2022-08-23T04:06:06.715Z,5.50
2022-08-23T04:07:06.724Z,5.50
2022-08-23T04:08:06.693Z,6.00
2022-08-23T04:09:06.687Z,5.50
2022-08-23T04:10:06.673Z,5.30
2022-08-23T04:11:06.667Z,5.70
2022-08-23T04:12:17.238Z,5.60
2022-08-23T04:13:06.652Z,5.20
2022-08-23T04:14:06.632Z,5.50
2022-08-23T04:15:06.625Z,5.50
2022-08-23T04:16:06.608Z,5.50
2022-08-23T04:17:06.623Z,5.80
2022-08-23T04:18:06.585Z,5.50
2022-08-23T04:19:06.582Z,5.60
2022-08-23T04:20:06.567Z,5.60
2022-08-23T04:21:06.566Z,5.80
2022-08-23T04:22:06.568Z,5.70
2022-08-23T04:23:06.540Z,5.40
2022-08-23T04:24:06.524Z,5.40
2022-08-23T04:25:16.301Z,5.80
2022-08-23T04:26:06.509Z,5.50
2022-08-23T04:27:06.518Z,5.80
2022-08-23T04:28:06.481Z,5.50
2022-08-23T04:29:06.478Z,5.90
2022-08-23T04:30:06.469Z,5.80
2022-08-23T04:31:06.454Z,6.00
2022-08-23T04:32:07.820Z,5.60
2022-08-23T04:33:09.908Z,5.50
2022-08-23T04:34:06.421Z,5.60
2022-08-23T04:35:06.413Z,5.70
2022-08-23T04:36:06.398Z,6.20
2022-08-23T04:37:09.379Z,5.50
2022-08-23T04:38:24.371Z,5.50
2022-08-23T04:39:06.375Z,5.70
2022-08-23T04:40:06.415Z,5.70
2022-08-23T04:41:06.358Z,5.70
2022-08-23T04:42:06.362Z,5.40
2022-08-23T04:43:06.332Z,5.80
2022-08-23T04:44:06.336Z,5.50
2022-08-23T04:45:06.309Z,5.50
2022-08-23T04:46:06.296Z,5.70
2022-08-23T04:47:06.303Z,5.80
2022-08-23T04:48:06.277Z,5.60
2022-08-23T04:49:06.275Z,5.70
2022-08-23T04:50:06.250Z,5.70
2022-08-23T04:51:06.247Z,5.80
2022-08-23T04:52:06.247Z,5.60
2022-08-23T04:53:06.225Z,6.00
2022-08-23T04:54:06.209Z,5.90
2022-08-23T04:55:06.202Z,5.80
2022-08-23T04:56:06.190Z,6.20
2022-08-23T04:57:06.199Z,6.10
2022-08-23T04:58:06.165Z,5.90
2022-08-23T04:59:06.159Z,5.90
2022-08-23T05:00:06.155Z,5.70
2022-08-23T05:01:06.176Z,5.80
2022-08-23T05:02:06.145Z,5.70
2022-08-23T05:03:06.118Z,5.80
2022-08-23T05:04:06.103Z,5.50
2022-08-23T05:05:06.099Z,5.40
2022-08-23T05:06:06.083Z,5.70
2022-08-23T05:07:06.094Z,6.10
2022-08-23T05:08:06.060Z,5.90
2022-08-23T05:09:06.071Z,5.80
2022-08-23T05:10:06.044Z,5.90
2022-08-23T05:11:06.034Z,5.50
2022-08-23T05:12:06.033Z,5.90
2022-08-23T05:13:06.011Z,5.80
2022-08-23T05:14:06.001Z,6.10
2022-08-23T05:15:05.993Z,6.30
2022-08-23T05:16:05.983Z,6.10
2022-08-23T05:17:05.999Z,6.00
2022-08-23T05:18:05.958Z,6.00
2022-08-23T05:19:05.955Z,5.90
2022-08-23T05:20:05.933Z,6.00
2022-08-23T05:21:05.932Z,5.80
2022-08-23T05:22:05.931Z,7.00
2022-08-23T05:23:05.910Z,6.20
2022-08-23T05:24:05.899Z,6.10
2022-08-23T05:25:05.895Z,6.60
2022-08-23T05:26:05.877Z,5.90
2022-08-23T05:27:05.884Z,6.00
2022-08-23T05:28:05.852Z,6.20
2022-08-23T05:29:05.846Z,5.50
2022-08-23T05:30:05.830Z,6.20
2022-08-23T05:31:05.857Z,6.20
2022-08-23T05:32:05.840Z,6.00
2022-08-23T05:33:05.804Z,6.00
2022-08-23T05:34:05.788Z,5.50
2022-08-23T05:35:05.782Z,5.80
2022-08-23T05:36:05.768Z,5.50
2022-08-23T05:37:05.794Z,5.80
2022-08-23T05:38:05.747Z,5.70
2022-08-23T05:39:05.744Z,6.10
2022-08-23T05:40:05.759Z,6.00
2022-08-23T05:41:07.035Z,5.90
2022-08-23T05:42:05.726Z,5.80
2022-08-23T05:43:05.697Z,6.00
2022-08-23T05:44:05.685Z,5.90
2022-08-23T05:45:06.026Z,5.80
2022-08-23T05:46:05.661Z,5.90
2022-08-23T05:47:10.333Z,5.80
2022-08-23T05:48:05.648Z,5.40
2022-08-23T05:49:05.634Z,5.70
2022-08-23T05:50:05.621Z,5.30
2022-08-23T05:51:05.616Z,5.70
2022-08-23T05:52:05.601Z,6.00
2022-08-23T05:53:05.612Z,5.70
2022-08-23T05:54:05.578Z,5.70
2022-08-23T05:55:05.574Z,5.70
2022-08-23T05:56:05.556Z,5.40
2022-08-23T05:57:05.550Z,5.40
2022-08-23T05:58:05.554Z,5.50
2022-08-23T05:59:05.531Z,5.70
2022-08-23T06:00:05.516Z,5.70
2022-08-23T06:01:05.555Z,5.80
2022-08-23T06:02:05.493Z,6.10
2022-08-23T06:03:05.511Z,5.60
2022-08-23T06:04:05.471Z,6.20
2022-08-23T06:05:05.467Z,5.80
2022-08-23T06:06:05.450Z,6.10
2022-08-23T06:07:05.446Z,5.90
2022-08-23T06:08:05.447Z,5.70
2022-08-23T06:09:05.427Z,5.80
2022-08-23T06:10:05.406Z,5.50
2022-08-23T06:11:05.403Z,5.90
2022-08-23T06:12:05.386Z,5.40
2022-08-23T06:13:05.414Z,5.50
2022-08-23T06:14:05.442Z,5.10
2022-08-23T06:15:05.362Z,5.40
2022-08-23T06:16:14.175Z,5.30
2022-08-23T06:17:05.347Z,5.40
2022-08-23T06:18:05.344Z,5.10
2022-08-23T06:19:05.321Z,5.30
2022-08-23T06:20:05.357Z,5.10
2022-08-23T06:21:05.304Z,4.80
2022-08-23T06:22:05.304Z,4.80
2022-08-23T06:23:05.283Z,5.00
2022-08-23T06:24:05.265Z,5.20
2022-08-23T06:25:09.145Z,4.50
2022-08-23T06:26:05.242Z,5.00
2022-08-23T06:27:05.251Z,4.90
2022-08-23T06:28:05.216Z,4.60
2022-08-23T06:29:05.268Z,5.00
2022-08-23T06:30:05.203Z,4.60
2022-08-23T06:31:05.251Z,4.80
2022-08-23T06:32:05.238Z,4.70
2022-08-23T06:33:05.177Z,4.50
2022-08-23T06:34:05.310Z,4.50
2022-08-23T06:35:32.978Z,4.70
2022-08-23T06:36:05.140Z,4.40
2022-08-23T06:37:05.171Z,4.80
2022-08-23T06:38:05.116Z,5.00
2022-08-23T06:39:05.109Z,4.70
2022-08-23T06:40:05.195Z,4.50
2022-08-23T06:41:05.093Z,4.90
2022-08-23T06:42:13.269Z,4.70
2022-08-23T06:43:05.075Z,4.60
2022-08-23T06:44:05.054Z,4.40
2022-08-23T06:45:05.047Z,4.10
2022-08-23T06:46:05.031Z,4.20
2022-08-23T06:47:05.155Z,4.50
2022-08-23T06:48:05.011Z,4.30
2022-08-23T06:49:05.006Z,4.70
2022-08-23T06:50:04.991Z,4.20
2022-08-23T06:51:06.200Z,4.40
2022-08-23T06:52:04.985Z,4.30
2022-08-23T06:53:06.989Z,4.00
2022-08-23T06:54:04.951Z,4.20
2022-08-23T06:55:04.942Z,4.40
2022-08-23T06:56:04.930Z,4.00
2022-08-23T06:57:04.945Z,3.90
2022-08-23T06:58:04.907Z,4.00
2022-08-23T06:59:04.903Z,3.80
2022-08-23T07:00:04.885Z,3.80
2022-08-23T07:01:04.912Z,3.90
2022-08-23T07:02:05.047Z,4.10
2022-08-23T07:03:04.977Z,3.90
2022-08-23T07:04:04.849Z,4.10
2022-08-23T07:05:04.845Z,4.10
2022-08-23T07:06:04.829Z,3.80
2022-08-23T07:07:09.521Z,4.00
2022-08-23T07:08:04.814Z,3.80
2022-08-23T07:09:04.797Z,3.80
2022-08-23T07:10:04.785Z,3.90
2022-08-23T07:11:04.771Z,3.90
2022-08-23T07:12:04.783Z,4.00
2022-08-23T07:13:04.751Z,4.00
2022-08-23T07:14:04.743Z,3.90
2022-08-23T07:15:04.729Z,4.00
2022-08-23T07:16:04.776Z,4.00
2022-08-23T07:17:04.738Z,3.90
2022-08-23T07:18:04.705Z,3.80
2022-08-23T07:19:04.686Z,3.80
2022-08-23T07:20:04.687Z,3.80
2022-08-23T07:21:04.680Z,3.80
2022-08-23T07:22:04.686Z,3.80
2022-08-23T07:23:04.646Z,3.40
2022-08-23T07:24:04.650Z,3.60
2022-08-23T07:25:04.629Z,3.80
2022-08-23T07:26:04.623Z,3.90
2022-08-23T07:27:04.622Z,3.70
2022-08-23T07:28:08.594Z,3.70
2022-08-23T07:29:04.591Z,3.80
2022-08-23T07:30:04.579Z,3.90
2022-08-23T07:31:04.562Z,4.10
2022-08-23T07:32:04.683Z,3.90
2022-08-23T07:33:04.548Z,3.90
2022-08-23T07:34:04.536Z,3.70
2022-08-23T07:35:04.523Z,3.50
2022-08-23T07:36:04.704Z,3.80
2022-08-23T07:37:04.579Z,3.80
2022-08-23T07:38:04.516Z,4.00
2022-08-23T07:39:04.479Z,4.10
2022-08-23T07:40:04.505Z,3.70
2022-08-23T07:41:04.456Z,3.60
2022-08-23T07:42:22.652Z,3.40
2022-08-23T07:43:04.460Z,3.60
2022-08-23T07:44:04.429Z,3.90
2022-08-23T07:45:04.416Z,3.60
2022-08-23T07:46:04.493Z,3.60
2022-08-23T07:47:04.398Z,3.50
2022-08-23T07:48:04.607Z,3.60
2022-08-23T07:49:04.377Z,3.50
2022-08-23T07:50:04.375Z,3.50
2022-08-23T07:51:04.359Z,3.70
2022-08-23T07:52:04.356Z,3.40
2022-08-23T07:53:04.354Z,3.40
2022-08-23T07:54:04.348Z,3.60
2022-08-23T07:55:04.313Z,3.60
2022-08-23T07:56:04.305Z,3.30
2022-08-23T07:57:04.293Z,3.30
2022-08-23T07:58:04.302Z,3.60
2022-08-23T07:59:04.283Z,3.30
2022-08-23T08:00:04.263Z,3.30
2022-08-23T08:01:04.251Z,3.30
2022-08-23T08:02:04.347Z,3.30
2022-08-23T08:03:04.331Z,3.20
2022-08-23T08:04:04.239Z,3.20
2022-08-23T08:05:04.220Z,3.10
2022-08-23T08:06:04.200Z,3.20
2022-08-23T08:07:18.773Z,3.50
2022-08-23T08:08:04.206Z,3.30
2022-08-23T08:09:04.165Z,3.00
2022-08-23T08:10:04.165Z,2.90
2022-08-23T08:11:04.182Z,3.30
2022-08-23T08:12:04.162Z,3.60
2022-08-23T08:13:04.124Z,3.50
2022-08-23T08:14:04.122Z,2.90
2022-08-23T08:15:04.107Z,3.10
2022-08-23T08:16:04.193Z,3.10
2022-08-23T08:17:04.104Z,3.20
2022-08-23T08:18:05.065Z,3.40
2022-08-23T08:19:04.065Z,3.10
2022-08-23T08:20:04.064Z,3.20
2022-08-23T08:21:04.675Z,3.40
2022-08-23T08:22:04.070Z,3.00
2022-08-23T08:23:04.024Z,3.40
2022-08-23T08:24:04.018Z,3.10
2022-08-23T08:25:04.003Z,3.40
2022-08-23T08:26:03.998Z,3.20
2022-08-23T08:27:04.008Z,3.30
2022-08-23T08:28:03.979Z,3.20
2022-08-23T08:29:03.962Z,3.70
2022-08-23T08:30:03.957Z,3.40
2022-08-23T08:31:03.999Z,3.00
2022-08-23T08:32:03.964Z,3.00
2022-08-23T08:33:04.161Z,2.80
2022-08-23T08:34:03.919Z,2.90
2022-08-23T08:35:03.901Z,2.80
2022-08-23T08:36:04.658Z,2.80
2022-08-23T08:37:03.878Z,3.50
2022-08-23T08:38:03.944Z,3.60
2022-08-23T08:39:03.859Z,2.70
2022-08-23T08:40:03.897Z,2.80
2022-08-23T08:41:03.840Z,2.90
2022-08-23T08:42:04.751Z,3.10
2022-08-23T08:43:03.834Z,2.80
2022-08-23T08:44:03.816Z,2.80
2022-08-23T08:45:03.873Z,3.00
2022-08-23T08:46:03.933Z,3.20
2022-08-23T08:47:03.775Z,2.80
2022-08-23T08:48:03.789Z,3.10
2022-08-23T08:49:03.752Z,3.20
2022-08-23T08:50:03.754Z,2.60
2022-08-23T08:51:03.753Z,3.00
2022-08-23T08:52:03.744Z,3.00
2022-08-23T08:53:03.719Z,3.10
2022-08-23T08:54:03.707Z,3.10
2022-08-23T08:55:03.699Z,3.10
2022-08-23T08:56:03.691Z,3.10
2022-08-23T08:57:03.689Z,3.00
2022-08-23T08:58:03.668Z,2.90
2022-08-23T08:59:03.654Z,3.00
2022-08-23T09:00:03.647Z,3.20
2022-08-23T09:01:03.634Z,3.00
2022-08-23T09:02:03.715Z,3.10
2022-08-23T09:03:03.685Z,3.10
2022-08-23T09:04:03.606Z,3.20
2022-08-23T09:05:03.593Z,3.10
2022-08-23T09:06:03.588Z,3.30
2022-08-23T09:07:03.597Z,2.90
2022-08-23T09:08:03.715Z,3.00
2022-08-23T09:09:03.558Z,2.90
2022-08-23T09:10:03.759Z,2.80
2022-08-23T09:11:03.533Z,3.00
2022-08-23T09:12:03.532Z,2.60
2022-08-23T09:13:03.530Z,2.80
2022-08-23T09:14:03.526Z,2.90
2022-08-23T09:15:03.493Z,2.70
2022-08-23T09:16:03.544Z,2.90
2022-08-23T09:17:05.674Z,3.10
2022-08-23T09:18:03.484Z,2.80
2022-08-23T09:19:03.459Z,3.00
2022-08-23T09:20:03.447Z,2.70
2022-08-23T09:21:03.434Z,3.00
2022-08-23T09:22:03.444Z,2.90
2022-08-23T09:23:03.428Z,2.90
2022-08-23T09:24:03.405Z,2.70
2022-08-23T09:25:03.389Z,2.80
2022-08-23T09:26:04.061Z,3.10
2022-08-23T09:27:03.371Z,2.80
2022-08-23T09:28:03.385Z,2.90
2022-08-23T09:29:03.350Z,2.80
2022-08-23T09:30:03.349Z,2.90
2022-08-23T09:31:03.369Z,2.70
2022-08-23T09:32:03.324Z,2.70
2022-08-23T09:33:03.327Z,2.50
2022-08-23T09:34:03.304Z,2.60
2022-08-23T09:35:03.285Z,2.60
2022-08-23T09:36:03.289Z,2.90
2022-08-23T09:37:03.265Z,2.40
2022-08-23T09:38:03.562Z,2.70
2022-08-23T09:39:03.273Z,2.60
2022-08-23T09:40:03.279Z,2.70
2022-08-23T09:41:03.229Z,2.60
2022-08-23T09:42:03.253Z,2.80
2022-08-23T09:43:03.215Z,2.50
2022-08-23T09:44:03.202Z,2.50
2022-08-23T09:45:03.186Z,2.80
2022-08-23T09:46:03.215Z,2.80
2022-08-23T09:47:03.186Z,2.90
2022-08-23T09:48:03.327Z,2.60
2022-08-23T09:49:03.148Z,2.60
2022-08-23T09:50:03.142Z,2.50
2022-08-23T09:51:03.131Z,2.40
2022-08-23T09:52:03.138Z,2.50
2022-08-23T09:53:04.292Z,2.40
2022-08-23T09:54:03.101Z,2.50
2022-08-23T09:55:03.105Z,2.40
2022-08-23T09:56:03.081Z,2.50
2022-08-23T09:57:03.082Z,2.40
2022-08-23T09:58:03.057Z,2.40
2022-08-23T09:59:03.048Z,2.50
2022-08-23T10:00:03.041Z,2.40
2022-08-23T10:01:03.026Z,2.50
2022-08-23T10:02:03.196Z,2.40
2022-08-23T10:03:03.022Z,2.60
2022-08-23T10:04:02.998Z,2.70
2022-08-23T10:05:03.175Z,2.60
2022-08-23T10:06:02.981Z,2.30
2022-08-23T10:07:02.981Z,2.80
2022-08-23T10:08:02.957Z,2.50
2022-08-23T10:09:02.943Z,2.70
2022-08-23T10:10:02.939Z,3.00
2022-08-23T10:11:02.922Z,2.90
2022-08-23T10:12:03.024Z,2.60
2022-08-23T10:13:03.294Z,2.60
2022-08-23T10:14:02.898Z,2.80
2022-08-23T10:15:02.882Z,2.50
2022-08-23T10:16:02.974Z,2.80
2022-08-23T10:17:02.886Z,2.50
2022-08-23T10:18:03.105Z,2.70
2022-08-23T10:19:02.842Z,2.80
2022-08-23T10:20:02.838Z,2.60
2022-08-23T10:21:02.818Z,2.90
2022-08-23T10:22:02.835Z,2.60
2022-08-23T10:23:02.802Z,2.90
2022-08-23T10:24:02.801Z,2.50
2022-08-23T10:25:04.194Z,2.60
2022-08-23T10:26:02.788Z,2.60
2022-08-23T10:27:02.782Z,2.50
2022-08-23T10:28:02.867Z,2.30
2022-08-23T10:29:02.740Z,2.50
2022-08-23T10:30:02.833Z,2.80
2022-08-23T10:31:02.782Z,2.50
2022-08-23T10:32:02.752Z,2.50
2022-08-23T10:33:02.703Z,2.60
2022-08-23T10:34:02.690Z,2.60
2022-08-23T10:35:02.681Z,2.60
2022-08-23T10:36:02.673Z,2.40
2022-08-23T10:37:02.674Z,2.60
2022-08-23T10:38:02.934Z,2.50
2022-08-23T10:39:02.643Z,2.50
2022-08-23T10:40:04.278Z,2.50
2022-08-23T10:41:02.617Z,2.40
2022-08-23T10:42:02.631Z,2.60
2022-08-23T10:43:02.601Z,2.50
2022-08-23T10:44:02.591Z,2.60
2022-08-23T10:45:02.572Z,2.80
2022-08-23T10:46:02.637Z,2.60
2022-08-23T10:47:02.575Z,2.40
2022-08-23T10:48:02.914Z,2.70
2022-08-23T10:49:02.532Z,2.40
2022-08-23T10:50:02.528Z,2.70
2022-08-23T10:51:02.512Z,2.70
2022-08-23T10:52:03.168Z,2.40
2022-08-23T10:53:02.514Z,2.50
2022-08-23T10:54:02.499Z,2.50
2022-08-23T10:55:02.474Z,2.30
2022-08-23T10:56:02.469Z,2.70
2022-08-23T10:57:02.453Z,2.70
2022-08-23T10:58:02.680Z,2.50
2022-08-23T10:59:02.434Z,2.60
2022-08-23T11:00:02.430Z,2.50
2022-08-23T11:01:02.417Z,2.80
2022-08-23T11:02:02.408Z,2.50
2022-08-23T11:03:02.452Z,2.70
2022-08-23T11:04:02.410Z,2.80
2022-08-23T11:05:02.388Z,2.60
2022-08-23T11:06:02.368Z,2.40
2022-08-23T11:07:02.353Z,2.50
2022-08-23T11:08:02.707Z,2.60
2022-08-23T11:09:02.332Z,2.50
2022-08-23T11:10:02.327Z,2.80
2022-08-23T11:11:02.312Z,2.70
2022-08-23T11:12:02.308Z,2.80
2022-08-23T11:13:02.420Z,2.60
2022-08-23T11:14:04.143Z,2.60
2022-08-23T11:15:02.273Z,2.70
2022-08-23T11:16:02.316Z,2.50
2022-08-23T11:17:02.256Z,2.70
2022-08-23T11:18:02.480Z,2.60
2022-08-23T11:19:02.236Z,2.50
2022-08-23T11:20:02.227Z,2.60
2022-08-23T11:21:02.227Z,2.40
2022-08-23T11:22:02.207Z,2.60
2022-08-23T11:23:02.227Z,2.50
2022-08-23T11:24:02.188Z,2.60
2022-08-23T11:25:02.182Z,2.60
2022-08-23T11:26:02.166Z,2.70
2022-08-23T11:27:05.958Z,2.70
2022-08-23T11:28:02.545Z,2.70
2022-08-23T11:29:02.141Z,2.40
2022-08-23T11:30:02.128Z,2.70
2022-08-23T11:31:02.169Z,2.60
2022-08-23T11:32:02.102Z,2.60
2022-08-23T11:33:02.157Z,2.70
2022-08-23T11:34:02.082Z,2.40
2022-08-23T11:35:02.078Z,2.40
2022-08-23T11:36:02.065Z,2.40
2022-08-23T11:37:02.065Z,2.80
2022-08-23T11:38:04.009Z,2.70
2022-08-23T11:39:02.037Z,2.80
2022-08-23T11:40:02.085Z,2.50
2022-08-23T11:41:02.020Z,2.80
2022-08-23T11:42:02.007Z,2.30
2022-08-23T11:43:02.046Z,2.40
2022-08-23T11:44:02.013Z,2.40
2022-08-23T11:45:01.992Z,2.60
2022-08-23T11:46:02.005Z,2.60
2022-08-23T11:47:01.989Z,2.60
2022-08-23T11:48:02.124Z,2.40
2022-08-23T11:49:01.942Z,2.50
2022-08-23T11:50:01.922Z,2.30
2022-08-23T11:51:01.918Z,2.40
2022-08-23T11:52:01.919Z,2.80
2022-08-23T11:53:01.972Z,2.60
2022-08-23T11:54:01.883Z,2.50
2022-08-23T11:55:01.874Z,2.30
2022-08-23T11:56:01.866Z,2.60
2022-08-23T11:57:01.869Z,2.40
2022-08-23T11:58:02.224Z,2.60
2022-08-23T11:59:02.541Z,2.60
2022-08-23T12:00:01.879Z,2.50
2022-08-23T12:01:01.819Z,2.70
2022-08-23T12:02:01.806Z,2.70
2022-08-23T12:03:02.188Z,2.60
2022-08-23T12:04:01.964Z,2.90
2022-08-23T12:05:01.776Z,2.60
2022-08-23T12:06:01.767Z,2.70
2022-08-23T12:07:01.763Z,2.60
2022-08-23T12:08:02.125Z,2.50
2022-08-23T12:09:01.950Z,2.60
2022-08-23T12:10:01.719Z,2.80
2022-08-23T12:11:01.714Z,2.70
2022-08-23T12:12:01.710Z,2.30
2022-08-23T12:13:01.772Z,2.60
2022-08-23T12:14:01.686Z,2.70
2022-08-23T12:15:01.675Z,2.50
2022-08-23T12:16:01.707Z,2.90
2022-08-23T12:17:01.656Z,2.60
2022-08-23T12:18:01.816Z,2.60
2022-08-23T12:19:01.636Z,2.70
2022-08-23T12:20:01.619Z,2.60
2022-08-23T12:21:01.612Z,2.70
2022-08-23T12:22:01.604Z,2.40
2022-08-23T12:23:01.613Z,2.70
2022-08-23T12:24:01.608Z,2.50
2022-08-23T12:25:01.573Z,2.70
2022-08-23T12:26:01.559Z,2.80
2022-08-23T12:27:01.556Z,2.50
2022-08-23T12:28:01.693Z,2.50
2022-08-23T12:29:01.536Z,2.50
2022-08-23T12:30:01.519Z,2.40
2022-08-23T12:31:07.984Z,2.50
2022-08-23T12:32:01.505Z,2.60
2022-08-23T12:33:01.524Z,2.70
2022-08-23T12:34:01.477Z,2.50
2022-08-23T12:35:01.473Z,2.50
2022-08-23T12:36:01.469Z,2.70
2022-08-23T12:37:01.461Z,2.70
2022-08-23T12:38:01.567Z,2.50
2022-08-23T12:39:01.437Z,2.70
2022-08-23T12:40:01.446Z,2.40
2022-08-23T12:41:01.438Z,2.30
2022-08-23T12:42:01.396Z,2.70
2022-08-23T12:43:01.923Z,2.60
2022-08-23T12:44:01.374Z,2.50
2022-08-23T12:45:01.370Z,2.40
2022-08-23T12:46:01.487Z,2.50
2022-08-23T12:47:01.351Z,2.60
2022-08-23T12:48:01.353Z,2.50
2022-08-23T12:49:01.329Z,2.50
2022-08-23T12:50:01.314Z,2.70
2022-08-23T12:51:01.307Z,2.60
2022-08-23T12:52:01.297Z,2.80
2022-08-23T12:53:01.606Z,2.30
2022-08-23T12:54:01.272Z,2.30
2022-08-23T12:55:01.280Z,2.50
2022-08-23T12:56:01.254Z,2.50
2022-08-23T12:57:01.249Z,2.50
2022-08-23T12:58:01.254Z,2.60
2022-08-23T12:59:01.228Z,2.40
2022-08-23T13:00:17.418Z,2.70
2022-08-23T13:01:01.231Z,2.50
2022-08-23T13:02:01.284Z,2.90
2022-08-23T13:03:01.690Z,2.60
2022-08-23T13:04:01.193Z,2.30
2022-08-23T13:05:01.174Z,2.50
2022-08-23T13:06:02.077Z,2.60
2022-08-23T13:07:01.152Z,2.50
2022-08-23T13:08:01.157Z,2.80
2022-08-23T13:09:01.130Z,2.60
2022-08-23T13:10:01.116Z,2.70
2022-08-23T13:11:05.206Z,3.00
2022-08-23T13:12:01.104Z,2.60
2022-08-23T13:13:01.213Z,2.70
2022-08-23T13:14:01.076Z,2.60
2022-08-23T13:15:01.071Z,2.60
2022-08-23T13:16:01.134Z,2.70
2022-08-23T13:17:01.052Z,2.50
2022-08-23T13:18:01.289Z,2.60
2022-08-23T13:19:01.037Z,2.30